createdAt,value
2019-04-14T00:10:57.291Z,73.48
2019-04-14T00:13:28.594Z,73.38
2019-04-14T00:27:10.959Z,73.60
2019-04-14T00:29:41.535Z,73.86
2019-04-14T00:43:48.466Z,73.88
2019-04-14T00:46:31.315Z,74.01
2019-04-14T01:00:29.733Z,73.89
2019-04-14T01:03:00.587Z,74.08
2019-04-14T01:05:37.563Z,74.27
2019-04-14T01:08:09.541Z,74.48
2019-04-14T01:21:48.135Z,74.49
2019-04-14T01:24:18.658Z,74.67
2019-04-14T01:37:25.170Z,74.90
2019-04-14T01:39:56.682Z,75.08
2019-04-14T01:43:02.161Z,75.06
2019-04-14T01:45:33.875Z,75.31
2019-04-14T01:48:11.250Z,74.84
2019-04-14T01:50:45.221Z,74.38
2019-04-14T02:04:13.848Z,74.75
2019-04-14T02:06:44.490Z,74.74
2019-04-14T02:20:18.632Z,75.39
2019-04-14T02:22:50.624Z,75.88
2019-04-14T02:25:27.524Z,75.98
2019-04-14T02:28:00.131Z,75.92
2019-04-14T02:30:46.924Z,75.99
2019-04-14T02:33:40.563Z,75.95
2019-04-14T02:57:16.794Z,76.45
2019-04-14T03:05:01.882Z,75.39
2019-04-14T03:21:09.213Z,75.94
2019-04-14T03:23:46.369Z,75.70
2019-04-14T03:26:38.817Z,75.93
2019-04-14T03:35:23.792Z,75.94
2019-04-14T03:40:12.263Z,76.02
2019-04-14T03:42:43.572Z,76.08
2019-04-14T03:45:33.330Z,76.03
2019-04-14T03:48:31.572Z,75.72
2019-04-14T04:00:44.354Z,75.62
2019-04-14T04:03:15.234Z,75.96
2019-04-14T04:17:13.117Z,75.09
2019-04-14T04:19:47.717Z,74.95
2019-04-14T04:33:37.913Z,76.51
2019-04-14T04:36:29.958Z,76.65
2019-04-14T04:39:28.448Z,76.67
2019-04-14T04:42:00.481Z,76.06
2019-04-14T04:44:33.468Z,76.09
2019-04-14T04:47:05.685Z,75.85
2019-04-14T04:49:38.332Z,76.12
2019-04-14T04:58:54.548Z,76.58
2019-04-14T05:01:25.406Z,75.93
2019-04-14T05:15:14.807Z,75.58
2019-04-14T05:17:47.423Z,75.31
2019-04-14T05:31:45.005Z,74.60
2019-04-14T05:34:15.572Z,74.13
2019-04-14T05:58:47.841Z,74.25
2019-04-14T06:01:20.357Z,74.08
2019-04-14T06:15:13.913Z,73.35
2019-04-14T06:17:45.023Z,73.10
2019-04-14T06:31:31.487Z,73.43
2019-04-14T06:34:06.944Z,73.40
2019-04-14T06:47:15.594Z,72.67
2019-04-14T06:49:49.173Z,73.02
2019-04-14T07:02:54.450Z,71.76
2019-04-14T07:05:25.145Z,71.34
2019-04-14T07:08:02.193Z,71.19
2019-04-14T07:10:32.755Z,71.03
2019-04-14T07:24:31.715Z,71.03
2019-04-14T07:27:02.619Z,71.03
2019-04-14T07:40:10.021Z,69.91
2019-04-14T07:42:48.321Z,69.94
2019-04-14T07:56:09.408Z,69.65
2019-04-14T07:58:46.016Z,69.52
2019-04-14T08:01:51.937Z,69.60
2019-04-14T08:04:24.299Z,69.93
2019-04-14T08:17:52.766Z,69.78
2019-04-14T08:20:27.742Z,69.82
2019-04-14T08:34:23.959Z,69.56
2019-04-14T08:36:55.718Z,69.17
2019-04-14T08:39:32.591Z,69.27
2019-04-14T08:42:15.712Z,69.13
2019-04-14T08:44:54.134Z,68.84
2019-04-14T08:47:36.026Z,68.50
2019-04-14T08:50:22.421Z,68.93
2019-04-14T09:03:48.401Z,68.65
2019-04-14T09:06:36.080Z,68.37
2019-04-14T09:09:12.898Z,67.86
2019-04-14T09:11:45.176Z,67.96
2019-04-14T09:14:23.578Z,67.92
2019-04-14T09:16:54.230Z,67.99
2019-04-14T09:19:34.367Z,67.75
2019-04-14T09:22:05.926Z,67.36
2019-04-14T09:25:12.219Z,67.27
2019-04-14T09:27:43.359Z,67.57
2019-04-14T09:41:11.920Z,66.71
2019-04-14T09:43:43.387Z,66.57
2019-04-14T09:46:18.936Z,67.09
2019-04-14T09:48:50.222Z,66.54
2019-04-14T09:51:28.390Z,65.74
2019-04-14T09:53:59.529Z,65.08
2019-04-14T09:56:37.847Z,64.49
2019-04-14T09:59:08.518Z,64.04
2019-04-14T10:12:49.248Z,62.21
2019-04-14T10:15:20.244Z,62.12
2019-04-14T10:29:05.780Z,62.78
2019-04-14T10:31:36.974Z,63.05
2019-04-14T10:34:14.051Z,63.29
2019-04-14T10:36:44.893Z,63.15
2019-04-14T10:39:24.323Z,62.77
2019-04-14T10:41:55.053Z,63.46
2019-04-14T10:44:31.935Z,62.70
2019-04-14T10:47:02.978Z,62.46
2019-04-14T10:49:39.803Z,63.00
2019-04-14T10:52:10.785Z,62.54
2019-04-14T11:06:23.674Z,63.42
2019-04-14T11:08:54.917Z,63.69
2019-04-14T11:22:30.790Z,64.40
2019-04-14T11:25:01.332Z,63.55
2019-04-14T11:38:17.029Z,63.45
2019-04-14T11:40:49.900Z,63.40
2019-04-14T11:43:26.632Z,63.60
2019-04-14T11:45:59.034Z,63.61
2019-04-14T11:48:36.216Z,63.24
2019-04-14T11:51:07.672Z,63.25
2019-04-14T11:53:44.561Z,63.23
2019-04-14T11:56:15.773Z,63.44
2019-04-14T11:58:55.840Z,63.46
2019-04-14T12:01:35.936Z,63.76
2019-04-14T12:15:35.197Z,62.60
2019-04-14T12:18:05.758Z,62.39
2019-04-14T12:20:43.908Z,63.16
2019-04-14T12:23:16.023Z,63.03
2019-04-14T12:37:09.688Z,64.23
2019-04-14T12:39:40.327Z,64.48
2019-04-14T12:42:24.874Z,64.54
2019-04-14T12:45:03.603Z,64.86
2019-04-14T12:59:02.040Z,65.54
2019-04-14T13:01:37.489Z,66.12
2019-04-14T13:04:15.831Z,66.22
2019-04-14T13:06:46.348Z,66.42
2019-04-14T13:20:23.666Z,66.91
2019-04-14T13:22:54.102Z,66.79
2019-04-14T13:25:31.528Z,66.97
2019-04-14T13:28:02.122Z,67.08
2019-04-14T13:30:41.588Z,67.28
2019-04-14T13:33:12.540Z,67.42
2019-04-14T13:35:43.443Z,67.60
2019-04-14T13:38:20.409Z,67.50
2019-04-14T13:40:52.431Z,67.34
2019-04-14T13:54:50.547Z,67.22
2019-04-14T13:57:20.458Z,67.59
2019-04-14T14:14:43.251Z,68.68
2019-04-14T14:17:17.985Z,68.39
2019-04-14T14:19:50.162Z,68.27
2019-04-14T14:22:29.391Z,68.27
2019-04-14T14:36:30.299Z,68.63
2019-04-14T14:39:01.850Z,68.65
2019-04-14T14:53:11.885Z,68.61
2019-04-14T14:55:35.033Z,68.60
2019-04-14T15:09:29.067Z,68.59
2019-04-14T15:12:00.002Z,68.90
2019-04-14T15:24:58.959Z,69.32
2019-04-14T15:27:42.497Z,69.41
2019-04-14T15:41:34.899Z,69.60
2019-04-14T15:44:06.042Z,69.58
2019-04-14T15:46:44.241Z,69.51
2019-04-14T15:49:16.225Z,69.67
2019-04-14T15:58:54.353Z,70.16
2019-04-14T16:01:43.826Z,70.42
2019-04-14T16:14:53.702Z,70.73
2019-04-14T16:17:35.547Z,70.94
2019-04-14T16:31:39.197Z,70.78
2019-04-14T16:34:15.495Z,70.97
2019-04-14T16:47:53.325Z,71.12
2019-04-14T16:50:24.367Z,71.27
2019-04-14T16:53:04.318Z,71.05
2019-04-14T16:55:37.260Z,71.02
2019-04-14T16:58:25.508Z,71.04
2019-04-14T17:01:00.867Z,70.95
2019-04-14T17:15:15.711Z,70.50
2019-04-14T17:18:05.086Z,70.59
2019-04-14T17:31:46.226Z,71.05
2019-04-14T17:34:30.991Z,71.11
2019-04-14T17:37:08.684Z,70.75
2019-04-14T17:39:47.110Z,70.85
2019-04-14T17:42:19.982Z,70.64
2019-04-14T17:56:20.053Z,70.68
2019-04-14T17:58:52.225Z,70.98
2019-04-14T18:12:33.779Z,71.69
2019-04-14T18:15:20.381Z,71.62
2019-04-14T18:29:26.316Z,71.97
2019-04-14T18:31:59.358Z,72.32
2019-04-14T18:45:59.992Z,72.47
2019-04-14T18:48:35.115Z,72.52
2019-04-14T18:51:26.810Z,72.62
2019-04-14T18:54:00.996Z,72.85
2019-04-14T18:56:33.269Z,73.27
2019-04-14T18:59:28.706Z,73.48
2019-04-14T19:02:01.206Z,73.68
2019-04-14T19:15:18.055Z,74.46
2019-04-14T19:17:53.558Z,74.48
2019-04-14T19:31:47.520Z,75.58
2019-04-14T19:34:18.555Z,75.19
2019-04-14T19:48:09.910Z,76.77
2019-04-14T19:50:40.914Z,77.53
2019-04-14T20:04:38.819Z,78.95
2019-04-14T20:07:09.915Z,79.28
2019-04-14T20:09:46.692Z,79.51
2019-04-14T20:12:18.033Z,79.89
2019-04-14T20:26:19.800Z,80.65
2019-04-14T20:28:55.301Z,80.84
2019-04-14T20:46:23.222Z,82.42
2019-04-14T20:48:54.303Z,82.72
2019-04-14T21:06:49.057Z,83.46
2019-04-14T21:09:25.229Z,83.74
2019-04-14T21:23:35.758Z,83.77
2019-04-14T21:26:26.385Z,83.99
2019-04-14T21:29:25.986Z,84.29
2019-04-14T21:32:03.067Z,84.43
2019-04-14T21:45:11.849Z,84.17
2019-04-14T21:47:43.562Z,84.81
2019-04-14T21:50:21.467Z,84.89
2019-04-14T21:52:52.655Z,85.00
2019-04-14T22:10:16.821Z,85.21
2019-04-14T22:12:48.271Z,85.08
2019-04-14T22:15:19.115Z,85.25
2019-04-14T22:17:49.800Z,85.43
2019-04-14T22:31:52.534Z,84.84
2019-04-14T22:34:23.622Z,84.84
2019-04-14T22:37:02.238Z,85.00
2019-04-14T22:39:33.177Z,84.76
2019-04-14T22:53:27.527Z,84.15
2019-04-14T22:55:59.489Z,84.62
2019-04-14T23:09:40.837Z,84.90
2019-04-14T23:12:29.695Z,84.78
2019-04-14T23:15:24.754Z,84.64
2019-04-14T23:18:07.546Z,84.69
2019-04-14T23:20:54.694Z,84.39
2019-04-14T23:23:36.228Z,84.42
2019-04-14T23:26:13.499Z,85.06
2019-04-14T23:28:44.670Z,84.96
2019-04-14T23:31:22.132Z,84.67
2019-04-14T23:33:52.759Z,84.34
2019-04-14T23:47:53.320Z,84.67
2019-04-14T23:50:23.889Z,85.02
